sensor_id;sensor_type;location;lat;lon;timestamp;pressure;altitude;pressure_sealevel;temperature;humidity
37764;BME280;23602;51.084;7.090;2023-03-14T00:02:21;97767.97;;;8.73;100.00
37764;BME280;23602;51.084;7.090;2023-03-14T00:04:46;97759.13;;;8.73;100.00
37764;BME280;23602;51.084;7.090;2023-03-14T00:07:12;97750.06;;;8.74;100.00
37764;BME280;23602;51.084;7.090;2023-03-14T00:09:37;97746.56;;;8.73;100.00
37764;BME280;23602;51.084;7.090;2023-03-14T00:12:02;97753.28;;;8.76;100.00
37764;BME280;23602;51.084;7.090;2023-03-14T00:14:28;97745.78;;;8.78;100.00
37764;BME280;23602;51.084;7.090;2023-03-14T00:16:53;97747.91;;;8.76;100.00
37764;BME280;23602;51.084;7.090;2023-03-14T00:19:19;97772.06;;;8.81;100.00
37764;BME280;23602;51.084;7.090;2023-03-14T00:21:44;97792.97;;;8.84;100.00
37764;BME280;23602;51.084;7.090;2023-03-14T00:24:09;97801.28;;;8.87;100.00
37764;BME280;23602;51.084;7.090;2023-03-14T00:26:35;97811.25;;;8.92;100.00
37764;BME280;23602;51.084;7.090;2023-03-14T00:29:00;97802.44;;;8.97;100.00
37764;BME280;23602;51.084;7.090;2023-03-14T00:31:25;97802.22;;;9.03;100.00
37764;BME280;23602;51.084;7.090;2023-03-14T00:33:51;97795.53;;;9.06;100.00
37764;BME280;23602;51.084;7.090;2023-03-14T00:36:17;97802.81;;;9.10;100.00
37764;BME280;23602;51.084;7.090;2023-03-14T00:38:44;97790.00;;;9.17;100.00
37764;BME280;23602;51.084;7.090;2023-03-14T00:41:11;97769.94;;;9.20;100.00
37764;BME280;23602;51.084;7.090;2023-03-14T00:43:37;97764.84;;;9.23;100.00
37764;BME280;23602;51.084;7.090;2023-03-14T00:46:02;97747.75;;;9.29;100.00
37764;BME280;23602;51.084;7.090;2023-03-14T00:48:28;97748.84;;;9.38;100.00
37764;BME280;23602;51.084;7.090;2023-03-14T00:50:53;97749.94;;;9.37;100.00
37764;BME280;23602;51.084;7.090;2023-03-14T00:53:18;97745.16;;;9.44;100.00
37764;BME280;23602;51.084;7.090;2023-03-14T00:55:44;97737.16;;;9.60;100.00
37764;BME280;23602;51.084;7.090;2023-03-14T00:58:10;97734.47;;;9.54;100.00
37764;BME280;23602;51.084;7.090;2023-03-14T01:00:36;97737.97;;;9.55;100.00
37764;BME280;23602;51.084;7.090;2023-03-14T01:03:01;97732.84;;;9.53;100.00
37764;BME280;23602;51.084;7.090;2023-03-14T01:05:26;97730.72;;;9.50;100.00
37764;BME280;23602;51.084;7.090;2023-03-14T01:07:52;97747.34;;;9.52;100.00
37764;BME280;23602;51.084;7.090;2023-03-14T01:10:17;97827.31;;;9.66;100.00
37764;BME280;23602;51.084;7.090;2023-03-14T01:12:43;97828.75;;;9.41;100.00
37764;BME280;23602;51.084;7.090;2023-03-14T01:15:08;97847.84;;;9.13;100.00
37764;BME280;23602;51.084;7.090;2023-03-14T01:17:34;97873.31;;;8.84;100.00
37764;BME280;23602;51.084;7.090;2023-03-14T01:20:00;97892.34;;;8.61;100.00
37764;BME280;23602;51.084;7.090;2023-03-14T01:22:25;97889.25;;;8.47;100.00
37764;BME280;23602;51.084;7.090;2023-03-14T01:24:50;97907.53;;;8.29;100.00
37764;BME280;23602;51.084;7.090;2023-03-14T01:27:16;97926.94;;;8.24;100.00
37764;BME280;23602;51.084;7.090;2023-03-14T01:29:41;97910.44;;;8.27;100.00
37764;BME280;23602;51.084;7.090;2023-03-14T01:32:07;97901.69;;;8.15;100.00
37764;BME280;23602;51.084;7.090;2023-03-14T01:34:32;97909.72;;;8.15;100.00
37764;BME280;23602;51.084;7.090;2023-03-14T01:36:57;97891.97;;;8.09;100.00
37764;BME280;23602;51.084;7.090;2023-03-14T01:39:23;97900.53;;;8.06;100.00
37764;BME280;23602;51.084;7.090;2023-03-14T01:41:48;97922.69;;;8.06;100.00
37764;BME280;23602;51.084;7.090;2023-03-14T01:44:14;97927.75;;;8.03;100.00
37764;BME280;23602;51.084;7.090;2023-03-14T01:46:43;97935.44;;;7.99;100.00
37764;BME280;23602;51.084;7.090;2023-03-14T01:51:45;97954.50;;;8.03;100.00
37764;BME280;23602;51.084;7.090;2023-03-14T01:54:14;97951.56;;;8.04;100.00
37764;BME280;23602;51.084;7.090;2023-03-14T01:56:41;97939.81;;;8.05;100.00
37764;BME280;23602;51.084;7.090;2023-03-14T01:59:08;97944.63;;;8.03;100.00
37764;BME280;23602;51.084;7.090;2023-03-14T02:01:34;97948.00;;;7.99;100.00
37764;BME280;23602;51.084;7.090;2023-03-14T02:04:02;97939.16;;;7.98;100.00
37764;BME280;23602;51.084;7.090;2023-03-14T02:06:29;97942.91;;;7.97;100.00
37764;BME280;23602;51.084;7.090;2023-03-14T02:08:56;97939.69;;;7.95;100.00
37764;BME280;23602;51.084;7.090;2023-03-14T02:11:21;97940.47;;;7.96;100.00
37764;BME280;23602;51.084;7.090;2023-03-14T02:13:51;97950.38;;;7.95;100.00
37764;BME280;23602;51.084;7.090;2023-03-14T02:16:16;97954.16;;;7.99;100.00
37764;BME280;23602;51.084;7.090;2023-03-14T02:18:42;97950.13;;;7.97;100.00
37764;BME280;23602;51.084;7.090;2023-03-14T02:21:16;97935.06;;;7.91;100.00
37764;BME280;23602;51.084;7.090;2023-03-14T02:23:51;97956.78;;;7.94;100.00
37764;BME280;23602;51.084;7.090;2023-03-14T02:28:43;97955.81;;;8.00;100.00
37764;BME280;23602;51.084;7.090;2023-03-14T02:31:09;97972.06;;;7.99;100.00
37764;BME280;23602;51.084;7.090;2023-03-14T02:33:35;97971.03;;;8.00;100.00
37764;BME280;23602;51.084;7.090;2023-03-14T02:36:03;97969.66;;;7.97;100.00
37764;BME280;23602;51.084;7.090;2023-03-14T02:38:44;97963.25;;;7.98;100.00
37764;BME280;23602;51.084;7.090;2023-03-14T02:41:11;97971.53;;;7.97;100.00
37764;BME280;23602;51.084;7.090;2023-03-14T02:43:36;97968.84;;;7.97;100.00
37764;BME280;23602;51.084;7.090;2023-03-14T02:46:01;97960.25;;;7.95;100.00
37764;BME280;23602;51.084;7.090;2023-03-14T02:48:30;97959.44;;;7.94;100.00
37764;BME280;23602;51.084;7.090;2023-03-14T02:50:57;97972.56;;;7.96;100.00
37764;BME280;23602;51.084;7.090;2023-03-14T02:53:25;97953.06;;;7.95;100.00
37764;BME280;23602;51.084;7.090;2023-03-14T02:55:51;97958.63;;;7.94;100.00
37764;BME280;23602;51.084;7.090;2023-03-14T02:58:17;97963.16;;;7.93;100.00
37764;BME280;23602;51.084;7.090;2023-03-14T03:00:42;97956.78;;;7.94;100.00
37764;BME280;23602;51.084;7.090;2023-03-14T03:03:08;97957.81;;;7.93;100.00
37764;BME280;23602;51.084;7.090;2023-03-14T03:05:33;97949.78;;;7.93;100.00
37764;BME280;23602;51.084;7.090;2023-03-14T03:07:59;97949.25;;;7.91;100.00
37764;BME280;23602;51.084;7.090;2023-03-14T03:10:24;97942.03;;;7.92;100.00
37764;BME280;23602;51.084;7.090;2023-03-14T03:12:49;97934.81;;;7.92;100.00
37764;BME280;23602;51.084;7.090;2023-03-14T03:15:15;97924.94;;;7.93;100.00
37764;BME280;23602;51.084;7.090;2023-03-14T03:17:40;97925.66;;;7.88;100.00
37764;BME280;23602;51.084;7.090;2023-03-14T03:20:06;97920.56;;;7.87;100.00
37764;BME280;23602;51.084;7.090;2023-03-14T03:22:34;97910.34;;;7.84;100.00
37764;BME280;23602;51.084;7.090;2023-03-14T03:24:59;97912.22;;;7.83;100.00
37764;BME280;23602;51.084;7.090;2023-03-14T03:27:24;97914.88;;;7.83;100.00
37764;BME280;23602;51.084;7.090;2023-03-14T03:29:52;97910.84;;;7.81;100.00
37764;BME280;23602;51.084;7.090;2023-03-14T03:32:17;97893.75;;;7.82;100.00
37764;BME280;23602;51.084;7.090;2023-03-14T03:34:42;97899.38;;;7.80;100.00
37764;BME280;23602;51.084;7.090;2023-03-14T03:37:07;97898.28;;;7.81;100.00
37764;BME280;23602;51.084;7.090;2023-03-14T03:39:33;97888.75;;;7.85;100.00
37764;BME280;23602;51.084;7.090;2023-03-14T03:41:58;97884.91;;;7.81;100.00
37764;BME280;23602;51.084;7.090;2023-03-14T03:44:23;97891.41;;;7.85;100.00
37764;BME280;23602;51.084;7.090;2023-03-14T03:46:49;97898.34;;;7.86;100.00
37764;BME280;23602;51.084;7.090;2023-03-14T03:49:14;97899.66;;;7.84;100.00
37764;BME280;23602;51.084;7.090;2023-03-14T03:51:39;97895.94;;;7.85;100.00
37764;BME280;23602;51.084;7.090;2023-03-14T03:54:05;97900.47;;;7.84;100.00
37764;BME280;23602;51.084;7.090;2023-03-14T03:56:30;97899.19;;;7.87;100.00
37764;BME280;23602;51.084;7.090;2023-03-14T03:58:56;97900.81;;;7.88;100.00
37764;BME280;23602;51.084;7.090;2023-03-14T04:01:21;97887.19;;;7.89;100.00
37764;BME280;23602;51.084;7.090;2023-03-14T04:03:47;97893.81;;;7.87;100.00
37764;BME280;23602;51.084;7.090;2023-03-14T04:06:12;97891.41;;;7.85;100.00
37764;BME280;23602;51.084;7.090;2023-03-14T04:08:38;97891.41;;;7.85;100.00
37764;BME280;23602;51.084;7.090;2023-03-14T04:11:04;97892.19;;;7.86;100.00
37764;BME280;23602;51.084;7.090;2023-03-14T04:13:29;97897.81;;;7.84;100.00
37764;BME280;23602;51.084;7.090;2023-03-14T04:15:55;97894.56;;;7.82;100.00
37764;BME280;23602;51.084;7.090;2023-03-14T04:18:20;97892.72;;;7.83;100.00
37764;BME280;23602;51.084;7.090;2023-03-14T04:20:50;97902.03;;;7.80;100.00
37764;BME280;23602;51.084;7.090;2023-03-14T04:23:15;97893.00;;;7.86;100.00
37764;BME280;23602;51.084;7.090;2023-03-14T04:25:41;97897.81;;;7.84;100.00
37764;BME280;23602;51.084;7.090;2023-03-14T04:28:08;97892.19;;;7.86;100.00
37764;BME280;23602;51.084;7.090;2023-03-14T04:30:33;97889.78;;;7.84;100.00
37764;BME280;23602;51.084;7.090;2023-03-14T04:33:01;97884.44;;;7.84;100.00
37764;BME280;23602;51.084;7.090;2023-03-14T04:35:26;97876.97;;;7.86;100.00
37764;BME280;23602;51.084;7.090;2023-03-14T04:37:52;97874.78;;;7.83;100.00
37764;BME280;23602;51.084;7.090;2023-03-14T04:40:17;97871.31;;;7.83;100.00
37764;BME280;23602;51.084;7.090;2023-03-14T04:42:42;97873.75;;;7.84;100.00
37764;BME280;23602;51.084;7.090;2023-03-14T04:45:08;97865.97;;;7.83;100.00
37764;BME280;23602;51.084;7.090;2023-03-14T04:47:33;97866.75;;;7.83;100.00
37764;BME280;23602;51.084;7.090;2023-03-14T04:49:59;97852.84;;;7.81;100.00
37764;BME280;23602;51.084;7.090;2023-03-14T04:52:25;97849.34;;;7.81;100.00
37764;BME280;23602;51.084;7.090;2023-03-14T04:54:50;97848.88;;;7.84;100.00
37764;BME280;23602;51.084;7.090;2023-03-14T04:57:16;97842.97;;;7.82;100.00
37764;BME280;23602;51.084;7.090;2023-03-14T04:59:41;97846.94;;;7.79;100.00
37764;BME280;23602;51.084;7.090;2023-03-14T05:02:06;97845.56;;;7.77;100.00
37764;BME280;23602;51.084;7.090;2023-03-14T05:04:32;97845.31;;;7.78;100.00
37764;BME280;23602;51.084;7.090;2023-03-14T05:06:59;97841.84;;;7.78;100.00
37764;BME280;23602;51.084;7.090;2023-03-14T05:09:24;97835.44;;;7.79;100.00
37764;BME280;23602;51.084;7.090;2023-03-14T05:11:49;97844.25;;;7.79;100.00
37764;BME280;23602;51.084;7.090;2023-03-14T05:14:15;97837.88;;;7.80;100.00
37764;BME280;23602;51.084;7.090;2023-03-14T05:16:42;97845.06;;;7.80;100.00
37764;BME280;23602;51.084;7.090;2023-03-14T05:19:08;97840.53;;;7.80;100.00
37764;BME280;23602;51.084;7.090;2023-03-14T05:21:33;97833.63;;;7.84;100.00
37764;BME280;23602;51.084;7.090;2023-03-14T05:23:58;97831.22;;;7.83;100.00
37764;BME280;23602;51.084;7.090;2023-03-14T05:26:24;97835.50;;;7.84;100.00
37764;BME280;23602;51.084;7.090;2023-03-14T05:28:49;97837.94;;;7.85;100.00
37764;BME280;23602;51.084;7.090;2023-03-14T05:31:15;97832.59;;;7.85;100.00
37764;BME280;23602;51.084;7.090;2023-03-14T05:33:40;97830.97;;;7.84;100.00
37764;BME280;23602;51.084;7.090;2023-03-14T05:36:05;97832.31;;;7.87;100.00
37764;BME280;23602;51.084;7.090;2023-03-14T05:38:31;97826.44;;;7.85;100.00
37764;BME280;23602;51.084;7.090;2023-03-14T05:40:56;97834.19;;;7.86;100.00
37764;BME280;23602;51.084;7.090;2023-03-14T05:43:21;97841.16;;;7.87;100.00
37764;BME280;23602;51.084;7.090;2023-03-14T05:45:47;97837.69;;;7.87;100.00
37764;BME280;23602;51.084;7.090;2023-03-14T05:48:12;97837.41;;;7.88;100.00
37764;BME280;23602;51.084;7.090;2023-03-14T05:50:37;97840.16;;;7.93;100.00
37764;BME280;23602;51.084;7.090;2023-03-14T05:53:03;97832.88;;;7.89;100.00
37764;BME280;23602;51.084;7.090;2023-03-14T05:55:28;97836.38;;;7.89;100.00
37764;BME280;23602;51.084;7.090;2023-03-14T05:57:53;97822.50;;;7.92;100.00
37764;BME280;23602;51.084;7.090;2023-03-14T06:00:19;97831.34;;;7.93;100.00
37764;BME280;23602;51.084;7.090;2023-03-14T06:02:44;97811.75;;;7.87;100.00
37764;BME280;23602;51.084;7.090;2023-03-14T06:05:10;97821.44;;;7.93;100.00
37764;BME280;23602;51.084;7.090;2023-03-14T06:07:35;97817.97;;;7.93;100.00
37764;BME280;23602;51.084;7.090;2023-03-14T06:10:01;97816.34;;;7.92;100.00
37764;BME280;23602;51.084;7.090;2023-03-14T06:12:26;97817.22;;;7.97;100.00
37764;BME280;23602;51.084;7.090;2023-03-14T06:14:52;97812.75;;;8.03;100.00
37764;BME280;23602;51.084;7.090;2023-03-14T06:17:17;97815.66;;;8.01;100.00
37764;BME280;23602;51.084;7.090;2023-03-14T06:19:42;97800.19;;;8.03;100.00
37764;BME280;23602;51.084;7.090;2023-03-14T06:22:07;97801.72;;;7.99;100.00
37764;BME280;23602;51.084;7.090;2023-03-14T06:24:33;97804.66;;;7.98;100.00
37764;BME280;23602;51.084;7.090;2023-03-14T06:26:58;97801.47;;;8.01;100.00
37764;BME280;23602;51.084;7.090;2023-03-14T06:29:23;97794.25;;;8.01;100.00
37764;BME280;23602;51.084;7.090;2023-03-14T06:31:51;97794.19;;;7.96;100.00
37764;BME280;23602;51.084;7.090;2023-03-14T06:34:18;97787.31;;;8.00;100.00
37764;BME280;23602;51.084;7.090;2023-03-14T06:36:43;97784.63;;;8.00;100.00
37764;BME280;23602;51.084;7.090;2023-03-14T06:39:09;97790.53;;;8.02;100.00
37764;BME280;23602;51.084;7.090;2023-03-14T06:41:34;97787.38;;;8.05;100.00
37764;BME280;23602;51.084;7.090;2023-03-14T06:43:59;97788.97;;;8.06;100.00
37764;BME280;23602;51.084;7.090;2023-03-14T06:46:24;97789.03;;;8.11;100.00
37764;BME280;23602;51.084;7.090;2023-03-14T06:48:50;97795.50;;;8.15;100.00
37764;BME280;23602;51.084;7.090;2023-03-14T06:51:15;97791.88;;;8.26;100.00
37764;BME280;23602;51.084;7.090;2023-03-14T06:53:40;97790.84;;;8.27;100.00
37764;BME280;23602;51.084;7.090;2023-03-14T06:56:06;97795.69;;;8.31;100.00
37764;BME280;23602;51.084;7.090;2023-03-14T06:58:31;97790.06;;;8.32;100.00
37764;BME280;23602;51.084;7.090;2023-03-14T07:00:57;97793.88;;;8.36;100.00
37764;BME280;23602;51.084;7.090;2023-03-14T07:03:23;97797.91;;;8.39;100.00
37764;BME280;23602;51.084;7.090;2023-03-14T07:05:48;97792.81;;;8.37;100.00
37764;BME280;23602;51.084;7.090;2023-03-14T07:08:14;97784.78;;;8.37;100.00
37764;BME280;23602;51.084;7.090;2023-03-14T07:10:39;97786.94;;;8.40;100.00
37764;BME280;23602;51.084;7.090;2023-03-14T07:13:04;97779.47;;;8.42;100.00
37764;BME280;23602;51.084;7.090;2023-03-14T07:15:30;97791.00;;;8.43;100.00
37764;BME280;23602;51.084;7.090;2023-03-14T07:17:55;97783.50;;;8.45;100.00
37764;BME280;23602;51.084;7.090;2023-03-14T07:20:20;97790.22;;;8.47;100.00
37764;BME280;23602;51.084;7.090;2023-03-14T07:22:49;97783.00;;;8.48;100.00
37764;BME280;23602;51.084;7.090;2023-03-14T07:25:15;97782.19;;;8.47;100.00
37764;BME280;23602;51.084;7.090;2023-03-14T07:27:40;97784.63;;;8.49;100.00
37764;BME280;23602;51.084;7.090;2023-03-14T07:30:07;97778.25;;;8.55;100.00
37764;BME280;23602;51.084;7.090;2023-03-14T07:32:33;97782.34;;;8.62;100.00
37764;BME280;23602;51.084;7.090;2023-03-14T07:34:58;97773.28;;;8.68;100.00
37764;BME280;23602;51.084;7.090;2023-03-14T07:37:23;97767.19;;;8.78;100.00
37764;BME280;23602;51.084;7.090;2023-03-14T07:39:49;97770.22;;;8.86;100.00
37764;BME280;23602;51.084;7.090;2023-03-14T07:42:16;97767.59;;;8.92;100.00
37764;BME280;23602;51.084;7.090;2023-03-14T07:44:41;97771.13;;;8.97;100.00
37764;BME280;23602;51.084;7.090;2023-03-14T07:47:06;97762.31;;;9.02;100.00
37764;BME280;23602;51.084;7.090;2023-03-14T07:49:32;97750.28;;;9.04;100.00
37764;BME280;23602;51.084;7.090;2023-03-14T07:51:57;97754.53;;;9.05;100.00
37764;BME280;23602;51.084;7.090;2023-03-14T07:54:24;97742.22;;;9.04;100.00
37764;BME280;23602;51.084;7.090;2023-03-14T07:56:50;97730.38;;;8.95;100.00
37764;BME280;23602;51.084;7.090;2023-03-14T07:59:15;97719.72;;;9.05;100.00
37764;BME280;23602;51.084;7.090;2023-03-14T08:01:40;97712.75;;;9.04;100.00
37764;BME280;23602;51.084;7.090;2023-03-14T08:04:05;97730.72;;;9.09;100.00
37764;BME280;23602;51.084;7.090;2023-03-14T08:06:31;97736.91;;;9.09;100.00
37764;BME280;23602;51.084;7.090;2023-03-14T08:08:56;97750.84;;;9.11;100.00
37764;BME280;23602;51.084;7.090;2023-03-14T08:11:22;97749.75;;;9.07;100.00
37764;BME280;23602;51.084;7.090;2023-03-14T08:13:48;97746.78;;;9.04;100.00
37764;BME280;23602;51.084;7.090;2023-03-14T08:16:18;97750.28;;;9.04;100.00
37764;BME280;23602;51.084;7.090;2023-03-14T08:18:44;97757.53;;;9.09;100.00
37764;BME280;23602;51.084;7.090;2023-03-14T08:21:10;97761.63;;;9.21;100.00
37764;BME280;23602;51.084;7.090;2023-03-14T08:23:35;97757.09;;;9.27;100.00
37764;BME280;23602;51.084;7.090;2023-03-14T08:26:00;97754.19;;;9.33;100.00
37764;BME280;23602;51.084;7.090;2023-03-14T08:28:26;97767.63;;;9.43;100.00
37764;BME280;23602;51.084;7.090;2023-03-14T08:30:55;97767.69;;;9.53;100.00
37764;BME280;23602;51.084;7.090;2023-03-14T08:33:21;97772.53;;;9.57;100.00
37764;BME280;23602;51.084;7.090;2023-03-14T08:35:46;97768.00;;;9.62;100.00
37764;BME280;23602;51.084;7.090;2023-03-14T08:38:11;97767.53;;;9.70;100.00
37764;BME280;23602;51.084;7.090;2023-03-14T08:40:37;97757.88;;;9.74;100.00
37764;BME280;23602;51.084;7.090;2023-03-14T08:43:02;97760.84;;;9.78;100.00
37764;BME280;23602;51.084;7.090;2023-03-14T08:45:27;97752.81;;;9.83;100.00
37764;BME280;23602;51.084;7.090;2023-03-14T08:47:53;97749.88;;;9.84;100.00
37764;BME280;23602;51.084;7.090;2023-03-14T08:50:18;97752.84;;;9.88;100.00
37764;BME280;23602;51.084;7.090;2023-03-14T08:52:43;97758.47;;;9.86;100.00
37764;BME280;23602;51.084;7.090;2023-03-14T08:55:11;97761.94;;;9.87;100.00
37764;BME280;23602;51.084;7.090;2023-03-14T08:57:37;97786.09;;;9.87;100.00
37764;BME280;23602;51.084;7.090;2023-03-14T09:00:03;97777.25;;;9.86;100.00
37764;BME280;23602;51.084;7.090;2023-03-14T09:02:30;97785.28;;;9.81;100.00
37764;BME280;23602;51.084;7.090;2023-03-14T09:04:56;97780.69;;;9.77;100.00
37764;BME280;23602;51.084;7.090;2023-03-14T09:07:21;97795.19;;;9.76;100.00
37764;BME280;23602;51.084;7.090;2023-03-14T09:09:46;97809.44;;;9.81;100.00
37764;BME280;23602;51.084;7.090;2023-03-14T09:12:12;97812.81;;;9.67;100.00
37764;BME280;23602;51.084;7.090;2023-03-14T09:14:37;97826.25;;;9.72;100.00
37764;BME280;23602;51.084;7.090;2023-03-14T09:17:03;97823.00;;;9.65;100.00
37764;BME280;23602;51.084;7.090;2023-03-14T09:19:28;97827.00;;;9.62;100.00
37764;BME280;23602;51.084;7.090;2023-03-14T09:21:54;97832.06;;;9.59;100.00
37764;BME280;23602;51.084;7.090;2023-03-14T09:24:19;97841.19;;;9.58;100.00
37764;BME280;23602;51.084;7.090;2023-03-14T09:26:45;97848.16;;;9.59;100.00
37764;BME280;23602;51.084;7.090;2023-03-14T09:29:10;97838.22;;;9.54;100.00
37764;BME280;23602;51.084;7.090;2023-03-14T09:31:35;97842.75;;;9.53;100.00
37764;BME280;23602;51.084;7.090;2023-03-14T09:34:00;97834.69;;;9.48;100.00
37764;BME280;23602;51.084;7.090;2023-03-14T09:36:26;97856.41;;;9.47;100.00
37764;BME280;23602;51.084;7.090;2023-03-14T09:38:51;97865.50;;;9.46;100.00
37764;BME280;23602;51.084;7.090;2023-03-14T09:41:24;97871.16;;;9.49;100.00
37764;BME280;23602;51.084;7.090;2023-03-14T09:43:52;97912.44;;;9.48;100.00
37764;BME280;23602;51.084;7.090;2023-03-14T09:46:20;97931.69;;;9.40;100.00
37764;BME280;23602;51.084;7.090;2023-03-14T09:48:46;97922.38;;;9.16;100.00
37764;BME280;23602;51.084;7.090;2023-03-14T09:51:13;97904.53;;;9.00;100.00
37764;BME280;23602;51.084;7.090;2023-03-14T09:53:40;97863.88;;;8.76;100.00
37764;BME280;23602;51.084;7.090;2023-03-14T09:56:28;97857.88;;;8.64;100.00
37764;BME280;23602;51.084;7.090;2023-03-14T09:58:53;97881.22;;;8.47;100.00
37764;BME280;23602;51.084;7.090;2023-03-14T10:01:21;97910.38;;;8.44;100.00
37764;BME280;23602;51.084;7.090;2023-03-14T10:03:47;97919.44;;;8.21;100.00
37764;BME280;23602;51.084;7.090;2023-03-14T10:06:14;97937.63;;;8.24;100.00
37764;BME280;23602;51.084;7.090;2023-03-14T10:08:43;97957.69;;;8.21;100.00
37764;BME280;23602;51.084;7.090;2023-03-14T10:11:16;97974.09;;;8.08;100.00
37764;BME280;23602;51.084;7.090;2023-03-14T10:16:30;97994.97;;;7.90;100.00
37764;BME280;23602;51.084;7.090;2023-03-14T10:19:06;98009.06;;;7.85;100.00
37764;BME280;23602;51.084;7.090;2023-03-14T10:21:36;98033.13;;;7.85;100.00
37764;BME280;23602;51.084;7.090;2023-03-14T10:24:10;98026.06;;;7.79;100.00
37764;BME280;23602;51.084;7.090;2023-03-14T10:26:41;98039.44;;;7.79;100.00
37764;BME280;23602;51.084;7.090;2023-03-14T10:29:11;98046.34;;;7.75;100.00
37764;BME280;23602;51.084;7.090;2023-03-14T10:34:22;98072.56;;;7.78;100.00
37764;BME280;23602;51.084;7.090;2023-03-14T10:36:51;98092.66;;;7.64;100.00
37764;BME280;23602;51.084;7.090;2023-03-14T10:39:33;98111.28;;;7.59;100.00
37764;BME280;23602;51.084;7.090;2023-03-14T10:42:12;98123.72;;;7.53;100.00
37764;BME280;23602;51.084;7.090;2023-03-14T10:44:42;98122.13;;;7.52;100.00
37764;BME280;23602;51.084;7.090;2023-03-14T10:47:12;98130.34;;;7.51;100.00
37764;BME280;23602;51.084;7.090;2023-03-14T10:49:40;98130.94;;;7.53;100.00
37764;BME280;23602;51.084;7.090;2023-03-14T10:54:33;98145.66;;;7.55;100.00
37764;BME280;23602;51.084;7.090;2023-03-14T10:56:59;98150.44;;;7.53;100.00
37764;BME280;23602;51.084;7.090;2023-03-14T10:59:26;98167.31;;;7.54;100.00
37764;BME280;23602;51.084;7.090;2023-03-14T11:07:05;98204.38;;;7.50;100.00
37764;BME280;23602;51.084;7.090;2023-03-14T11:09:34;98217.50;;;7.52;100.00
37764;BME280;23602;51.084;7.090;2023-03-14T11:14:55;98221.38;;;7.44;100.00
37764;BME280;23602;51.084;7.090;2023-03-14T11:25:07;98270.66;;;7.37;100.00
37764;BME280;23602;51.084;7.090;2023-03-14T11:30:23;98277.50;;;7.33;100.00
37764;BME280;23602;51.084;7.090;2023-03-14T11:35:17;98297.25;;;7.20;100.00
37764;BME280;23602;51.084;7.090;2023-03-14T11:37:46;98298.75;;;7.16;100.00
37764;BME280;23602;51.084;7.090;2023-03-14T11:40:22;98320.81;;;7.23;100.00
37764;BME280;23602;51.084;7.090;2023-03-14T11:42:49;98332.00;;;7.32;100.00
37764;BME280;23602;51.084;7.090;2023-03-14T11:45:19;98333.03;;;7.31;100.00
37764;BME280;23602;51.084;7.090;2023-03-14T11:47:48;98331.16;;;7.20;100.00
37764;BME280;23602;51.084;7.090;2023-03-14T11:50:19;98330.69;;;7.11;100.00
37764;BME280;23602;51.084;7.090;2023-03-14T11:55:21;98362.03;;;6.92;100.00
37764;BME280;23602;51.084;7.090;2023-03-14T11:57:55;98360.88;;;6.88;100.00
37764;BME280;23602;51.084;7.090;2023-03-14T12:00:22;98376.56;;;6.96;100.00
37764;BME280;23602;51.084;7.090;2023-03-14T12:10:39;98370.16;;;6.97;100.00
37764;BME280;23602;51.084;7.090;2023-03-14T12:13:13;98378.97;;;6.98;100.00
37764;BME280;23602;51.084;7.090;2023-03-14T12:15:39;98383.50;;;6.97;100.00
37764;BME280;23602;51.084;7.090;2023-03-14T12:18:12;98400.22;;;6.93;100.00
37764;BME280;23602;51.084;7.090;2023-03-14T12:20:42;98405.50;;;6.81;100.00
37764;BME280;23602;51.084;7.090;2023-03-14T12:23:15;98417.94;;;6.76;100.00
37764;BME280;23602;51.084;7.090;2023-03-14T12:25:41;98432.56;;;6.73;100.00
37764;BME280;23602;51.084;7.090;2023-03-14T12:28:29;98441.59;;;6.72;100.00
37764;BME280;23602;51.084;7.090;2023-03-14T12:30:55;98454.91;;;6.61;100.00
37764;BME280;23602;51.084;7.090;2023-03-14T12:33:25;98452.16;;;6.49;100.00
37764;BME280;23602;51.084;7.090;2023-03-14T12:35:53;98455.94;;;6.42;100.00
37764;BME280;23602;51.084;7.090;2023-03-14T12:38:37;98463.59;;;6.38;100.00
37764;BME280;23602;51.084;7.090;2023-03-14T12:43:36;98485.59;;;6.33;100.00
37764;BME280;23602;51.084;7.090;2023-03-14T12:51:17;98535.16;;;6.41;100.00
37764;BME280;23602;51.084;7.090;2023-03-14T12:53:47;98535.00;;;6.36;100.00
37764;BME280;23602;51.084;7.090;2023-03-14T12:56:20;98542.81;;;6.38;100.00
37764;BME280;23602;51.084;7.090;2023-03-14T13:01:30;98550.25;;;6.35;100.00
37764;BME280;23602;51.084;7.090;2023-03-14T13:03:58;98557.03;;;6.31;100.00
37764;BME280;23602;51.084;7.090;2023-03-14T13:06:47;98564.00;;;6.32;100.00
37764;BME280;23602;51.084;7.090;2023-03-14T13:12:14;98580.53;;;6.95;100.00
37764;BME280;23602;51.084;7.090;2023-03-14T13:14:43;98581.69;;;6.99;100.00
37764;BME280;23602;51.084;7.090;2023-03-14T13:17:12;98572.53;;;6.95;100.00
37764;BME280;23602;51.084;7.090;2023-03-14T13:19:38;98582.19;;;6.96;100.00
37764;BME280;23602;51.084;7.090;2023-03-14T13:22:04;98587.97;;;6.93;100.00
37764;BME280;23602;51.084;7.090;2023-03-14T13:24:32;98594.16;;;7.06;100.00
37764;BME280;23602;51.084;7.090;2023-03-14T13:26:58;98607.28;;;7.07;100.00
37764;BME280;23602;51.084;7.090;2023-03-14T13:29:27;98598.91;;;7.22;100.00
37764;BME280;23602;51.084;7.090;2023-03-14T13:31:53;98608.97;;;7.20;100.00
37764;BME280;23602;51.084;7.090;2023-03-14T13:34:19;98612.19;;;7.10;100.00
37764;BME280;23602;51.084;7.090;2023-03-14T13:36:45;98617.03;;;7.02;100.00
37764;BME280;23602;51.084;7.090;2023-03-14T13:39:12;98636.84;;;6.94;100.00
37764;BME280;23602;51.084;7.090;2023-03-14T13:41:38;98636.91;;;6.87;100.00
37764;BME280;23602;51.084;7.090;2023-03-14T13:44:05;98641.72;;;6.97;100.00
37764;BME280;23602;51.084;7.090;2023-03-14T13:46:33;98640.59;;;7.05;100.00
37764;BME280;23602;51.084;7.090;2023-03-14T13:49:01;98640.16;;;6.89;100.00
37764;BME280;23602;51.084;7.090;2023-03-14T13:51:27;98623.84;;;6.79;100.00
37764;BME280;23602;51.084;7.090;2023-03-14T13:53:57;98642.03;;;6.89;100.00
37764;BME280;23602;51.084;7.090;2023-03-14T13:56:24;98648.13;;;6.96;100.00